Time;durP1;ratioP1;P1;durP2;ratioP2;P2;SDS_P1;SDS_P2;PMS_P1;PMS_P2;Temp;Humidity;BMP_temperature;BMP_pressure;BME280_temperature;BME280_humidity;BME280_pressure;Samples;Min_cycle;Max_cycle;Signal;HPM_P1;HPM_P2
2022/07/14 00:01:43;;;;;;;6.63;1.90;;;;;;;;;;5032264;28;20028;-65
2022/07/14 00:04:09;;;;;;;9.23;1.77;;;;;;;;;;5047877;28;20272;-65
2022/07/14 00:06:35;;;;;;;4.47;1.73;;;;;;;;;;5052669;28;20077;-65
2022/07/14 00:09:01;;;;;;;5.30;1.77;;;;;;;;;;5051137;28;20024;-65
2022/07/14 00:11:28;;;;;;;4.40;1.40;;;;;;;;;;5051734;28;20104;-65
2022/07/14 00:13:56;;;;;;;7.82;1.90;;;;;;;;;;5043836;28;20036;-65
2022/07/14 00:16:22;;;;;;;6.78;1.80;;;;;;;;;;5054574;28;20116;-65
2022/07/14 00:18:48;;;;;;;5.28;1.70;;;;;;;;;;5031065;28;20036;-66
2022/07/14 00:21:15;;;;;;;6.50;1.73;;;;;;;;;;5037004;28;20089;-67
2022/07/14 00:23:47;;;;;;;9.25;1.90;;;;;;;;;;5052195;28;20036;-67
2022/07/14 00:26:14;;;;;;;7.38;2.08;;;;;;;;;;5052622;28;20964;-66
2022/07/14 00:28:40;;;;;;;6.80;1.60;;;;;;;;;;5055397;28;20032;-67
2022/07/14 00:31:13;;;;;;;7.18;2.15;;;;;;;;;;5039014;28;20052;-67
2022/07/14 00:33:40;;;;;;;5.38;1.70;;;;;;;;;;5035178;28;20368;-67
2022/07/14 00:36:07;;;;;;;7.03;1.60;;;;;;;;;;5032708;28;20028;-67
2022/07/14 00:38:33;;;;;;;7.22;1.65;;;;;;;;;;5052079;28;20135;-66
2022/07/14 00:40:59;;;;;;;6.05;1.70;;;;;;;;;;5051094;28;20453;-66
2022/07/14 00:43:25;;;;;;;8.73;1.88;;;;;;;;;;5056032;28;20506;-66
2022/07/14 00:45:51;;;;;;;7.28;2.00;;;;;;;;;;5049969;28;20454;-66
2022/07/14 00:48:19;;;;;;;6.57;1.80;;;;;;;;;;5049886;28;20044;-66
2022/07/14 00:50:45;;;;;;;6.15;1.73;;;;;;;;;;5052130;28;20434;-65
2022/07/14 00:53:12;;;;;;;5.45;1.45;;;;;;;;;;5056851;28;20036;-66
2022/07/14 00:55:42;;;;;;;8.00;1.70;;;;;;;;;;5049020;28;20480;-65
2022/07/14 00:58:08;;;;;;;4.72;1.50;;;;;;;;;;5053955;28;20052;-66
2022/07/14 01:00:34;;;;;;;5.63;1.33;;;;;;;;;;5056593;28;20562;-66
2022/07/14 01:03:01;;;;;;;8.35;1.98;;;;;;;;;;5051261;28;20029;-66
2022/07/14 01:05:27;;;;;;;5.05;1.52;;;;;;;;;;5052863;28;20578;-66
2022/07/14 01:07:54;;;;;;;5.07;1.58;;;;;;;;;;5049569;28;20110;-66
2022/07/14 01:10:20;;;;;;;5.65;1.67;;;;;;;;;;5032736;28;20023;-66
2022/07/14 01:12:47;;;;;;;9.50;2.15;;;;;;;;;;5049209;28;20050;-66
2022/07/14 01:15:22;;;;;;;8.25;1.92;;;;;;;;;;5030982;28;20025;-66
2022/07/14 01:17:48;;;;;;;11.70;2.45;;;;;;;;;;5035645;28;20042;-67
2022/07/14 01:20:16;;;;;;;7.97;1.95;;;;;;;;;;5061740;28;20031;-66
2022/07/14 01:22:42;;;;;;;6.70;1.95;;;;;;;;;;5054608;28;20035;-66
2022/07/14 01:25:09;;;;;;;6.22;1.60;;;;;;;;;;5054916;28;20400;-65
2022/07/14 01:27:35;;;;;;;9.45;2.25;;;;;;;;;;5056248;28;20401;-66
2022/07/14 01:30:01;;;;;;;10.65;2.10;;;;;;;;;;5030610;28;20487;-66
2022/07/14 01:32:27;;;;;;;10.85;2.10;;;;;;;;;;5058139;28;20032;-66
2022/07/14 01:34:54;;;;;;;12.00;1.85;;;;;;;;;;5050984;28;20024;-65
2022/07/14 01:37:21;;;;;;;5.75;1.67;;;;;;;;;;5054599;28;20037;-66
2022/07/14 01:39:47;;;;;;;5.30;1.40;;;;;;;;;;5050079;28;20453;-66
2022/07/14 01:42:13;;;;;;;11.70;1.80;;;;;;;;;;5031124;28;20043;-66
2022/07/14 01:44:39;;;;;;;6.13;1.77;;;;;;;;;;5031122;28;20557;-65
2022/07/14 01:47:05;;;;;;;7.18;1.80;;;;;;;;;;5034939;28;20498;-66
2022/07/14 01:49:32;;;;;;;7.38;1.60;;;;;;;;;;5051011;28;20293;-66
2022/07/14 01:51:58;;;;;;;10.38;1.83;;;;;;;;;;5051936;28;20043;-66
2022/07/14 01:54:27;;;;;;;9.45;1.88;;;;;;;;;;5051681;28;20087;-65
2022/07/14 01:56:53;;;;;;;7.63;1.92;;;;;;;;;;5048600;28;20066;-66
2022/07/14 01:59:19;;;;;;;7.38;1.60;;;;;;;;;;5057164;28;20134;-65
2022/07/14 02:01:46;;;;;;;6.25;1.60;;;;;;;;;;5032071;28;20040;-65
2022/07/14 02:04:13;;;;;;;7.10;1.63;;;;;;;;;;5050746;28;20032;-65
2022/07/14 02:06:43;;;;;;;5.80;1.40;;;;;;;;;;5035184;28;20251;-65
2022/07/14 02:09:10;;;;;;;5.75;1.45;;;;;;;;;;5050118;28;20012;-65
2022/07/14 02:14:21;;;;;;;4.10;1.48;;;;;;;;;;5053225;28;20038;-66
2022/07/14 02:16:47;;;;;;;3.83;1.33;;;;;;;;;;5048501;28;20044;-66
2022/07/14 02:19:13;;;;;;;8.02;2.05;;;;;;;;;;5033902;28;20032;-65
2022/07/14 02:21:40;;;;;;;12.32;2.22;;;;;;;;;;5052186;28;20179;-65
2022/07/14 02:24:09;;;;;;;13.00;2.42;;;;;;;;;;5032335;28;20029;-67
2022/07/14 02:26:36;;;;;;;13.90;2.60;;;;;;;;;;5036453;28;20032;-65
2022/07/14 02:29:04;;;;;;;22.60;4.20;;;;;;;;;;5054073;28;20455;-65
2022/07/14 02:31:31;;;;;;;11.40;2.33;;;;;;;;;;5056335;28;20097;-65
2022/07/14 02:33:57;;;;;;;11.57;2.30;;;;;;;;;;5047188;28;20520;-66
2022/07/14 02:36:23;;;;;;;7.43;2.17;;;;;;;;;;5056645;28;20036;-66
2022/07/14 02:38:49;;;;;;;9.73;2.20;;;;;;;;;;5049019;28;20621;-66
2022/07/14 02:41:16;;;;;;;6.88;1.83;;;;;;;;;;5052853;28;20047;-66
2022/07/14 02:43:42;;;;;;;7.43;2.03;;;;;;;;;;5053940;28;20057;-66
2022/07/14 02:46:08;;;;;;;5.55;1.75;;;;;;;;;;5050272;28;20029;-66
2022/07/14 02:48:35;;;;;;;7.43;1.60;;;;;;;;;;5055261;28;20048;-66
2022/07/14 02:51:02;;;;;;;7.55;1.55;;;;;;;;;;5054043;28;20063;-66
2022/07/14 02:53:28;;;;;;;8.02;1.75;;;;;;;;;;5041302;28;20484;-66
2022/07/14 02:55:55;;;;;;;6.28;1.73;;;;;;;;;;5049501;28;20446;-66
2022/07/14 02:58:21;;;;;;;5.47;1.73;;;;;;;;;;5035920;28;20063;-66
2022/07/14 03:00:48;;;;;;;6.15;1.80;;;;;;;;;;5032382;28;20017;-66
2022/07/14 03:03:14;;;;;;;7.00;1.77;;;;;;;;;;5051225;28;20028;-66
2022/07/14 03:05:40;;;;;;;4.20;1.60;;;;;;;;;;5053929;28;20128;-66
2022/07/14 03:08:06;;;;;;;7.43;2.00;;;;;;;;;;5054916;28;20026;-66
2022/07/14 03:10:32;;;;;;;6.13;1.95;;;;;;;;;;5056418;28;20398;-65
2022/07/14 03:12:58;;;;;;;9.82;2.05;;;;;;;;;;5052687;28;20384;-66
2022/07/14 03:15:25;;;;;;;7.57;1.77;;;;;;;;;;5030226;28;20036;-66
2022/07/14 03:17:51;;;;;;;4.57;1.63;;;;;;;;;;5048900;28;20029;-66
2022/07/14 03:20:17;;;;;;;8.43;1.92;;;;;;;;;;5049662;28;20040;-66
2022/07/14 03:22:43;;;;;;;7.55;1.80;;;;;;;;;;5049789;28;20371;-66
2022/07/14 03:25:09;;;;;;;4.35;1.58;;;;;;;;;;5035035;28;20042;-66
2022/07/14 03:27:35;;;;;;;4.97;1.80;;;;;;;;;;5051437;28;20380;-66
2022/07/14 03:30:02;;;;;;;8.02;3.28;;;;;;;;;;5050547;28;20085;-66
2022/07/14 03:32:29;;;;;;;9.63;4.00;;;;;;;;;;5052744;28;20093;-66
2022/07/14 03:34:55;;;;;;;13.88;6.28;;;;;;;;;;5032182;28;20033;-66
2022/07/14 03:37:21;;;;;;;15.55;6.13;;;;;;;;;;5052348;28;20484;-65
2022/07/14 03:39:47;;;;;;;14.20;5.80;;;;;;;;;;5045151;28;20032;-67
2022/07/14 03:42:13;;;;;;;14.32;5.05;;;;;;;;;;5052311;28;20589;-66
2022/07/14 03:44:39;;;;;;;7.85;2.95;;;;;;;;;;5046002;28;20548;-66
2022/07/14 03:47:05;;;;;;;8.40;2.40;;;;;;;;;;5053772;28;20399;-66
2022/07/14 03:49:31;;;;;;;7.85;2.15;;;;;;;;;;5048796;28;20118;-66
2022/07/14 03:51:57;;;;;;;7.35;1.98;;;;;;;;;;5031653;28;23575;-65
2022/07/14 03:54:23;;;;;;;5.60;1.75;;;;;;;;;;5035858;28;20040;-66
2022/07/14 03:56:49;;;;;;;6.55;2.28;;;;;;;;;;5031671;28;20038;-66
2022/07/14 03:59:15;;;;;;;7.47;2.22;;;;;;;;;;5034526;28;20024;-66
2022/07/14 04:01:42;;;;;;;6.88;2.08;;;;;;;;;;5047420;28;20075;-66
2022/07/14 04:04:08;;;;;;;7.13;1.98;;;;;;;;;;5034713;28;20092;-66
2022/07/14 04:06:34;;;;;;;4.82;1.50;;;;;;;;;;5053612;28;20039;-66
2022/07/14 04:09:03;;;;;;;6.47;1.75;;;;;;;;;;5052908;28;20037;-66
2022/07/14 04:11:29;;;;;;;7.07;2.15;;;;;;;;;;5049474;28;20559;-66
2022/07/14 04:13:55;;;;;;;9.82;1.90;;;;;;;;;;5046122;28;20033;-66
2022/07/14 04:16:22;;;;;;;6.05;2.00;;;;;;;;;;5051307;28;20083;-66
2022/07/14 04:18:48;;;;;;;8.45;2.40;;;;;;;;;;5053387;28;20045;-66
2022/07/14 04:21:14;;;;;;;10.07;2.33;;;;;;;;;;5036692;28;20374;-65
2022/07/14 04:23:40;;;;;;;10.88;2.53;;;;;;;;;;5032131;28;20359;-66
2022/07/14 04:26:06;;;;;;;6.97;2.25;;;;;;;;;;5056035;28;20468;-66
2022/07/14 04:28:32;;;;;;;10.48;2.47;;;;;;;;;;5051625;28;20394;-66
2022/07/14 04:30:59;;;;;;;10.38;2.60;;;;;;;;;;5052339;28;20024;-67
2022/07/14 04:33:25;;;;;;;10.40;2.35;;;;;;;;;;5050016;28;20111;-66
2022/07/14 04:35:51;;;;;;;10.45;2.70;;;;;;;;;;5052923;28;20715;-66
2022/07/14 04:38:17;;;;;;;11.55;2.60;;;;;;;;;;5050881;28;20065;-66
2022/07/14 04:40:47;;;;;;;9.13;2.63;;;;;;;;;;5049455;28;20493;-66
2022/07/14 04:43:13;;;;;;;8.73;2.83;;;;;;;;;;5056134;28;20024;-65
2022/07/14 04:45:39;;;;;;;12.15;2.80;;;;;;;;;;5050326;28;20067;-69
2022/07/14 04:48:05;;;;;;;12.20;2.60;;;;;;;;;;5033287;28;20083;-66
2022/07/14 04:53:17;;;;;;;9.13;2.65;;;;;;;;;;5054404;28;20086;-66
2022/07/14 04:55:43;;;;;;;10.50;2.50;;;;;;;;;;5050969;28;20035;-66
2022/07/14 04:58:09;;;;;;;10.63;2.63;;;;;;;;;;5051007;28;20051;-66
2022/07/14 05:00:35;;;;;;;9.50;2.38;;;;;;;;;;5059848;28;20505;-67
2022/07/14 05:03:01;;;;;;;7.50;2.25;;;;;;;;;;5046720;28;20305;-67
2022/07/14 05:05:28;;;;;;;10.40;2.55;;;;;;;;;;5056149;28;20397;-66
2022/07/14 05:07:54;;;;;;;8.20;2.28;;;;;;;;;;5054212;28;20318;-66
2022/07/14 05:10:20;;;;;;;12.07;2.50;;;;;;;;;;5063506;28;20039;-66
2022/07/14 05:12:46;;;;;;;10.02;2.40;;;;;;;;;;5057680;28;20029;-66
2022/07/14 05:15:12;;;;;;;11.20;2.10;;;;;;;;;;5057695;28;20036;-66
2022/07/14 05:17:38;;;;;;;7.40;2.15;;;;;;;;;;5040703;28;20036;-66
2022/07/14 05:20:05;;;;;;;7.93;1.88;;;;;;;;;;5059612;28;20032;-66
2022/07/14 05:22:37;;;;;;;8.77;1.95;;;;;;;;;;5036224;28;20032;-66
2022/07/14 05:25:11;;;;;;;9.27;2.10;;;;;;;;;;5058101;28;20032;-67
2022/07/14 05:27:38;;;;;;;8.80;2.05;;;;;;;;;;5060586;28;20036;-66
2022/07/14 05:30:05;;;;;;;6.95;2.20;;;;;;;;;;5034773;28;20348;-66
2022/07/14 05:32:31;;;;;;;7.63;2.10;;;;;;;;;;5060969;28;20251;-67
2022/07/14 05:34:58;;;;;;;7.70;2.17;;;;;;;;;;5051574;28;21522;-66
2022/07/14 05:37:25;;;;;;;7.95;1.92;;;;;;;;;;5052853;28;20483;-66
2022/07/14 05:39:51;;;;;;;9.93;2.00;;;;;;;;;;5055117;28;20098;-67
2022/07/14 05:42:19;;;;;;;6.93;1.83;;;;;;;;;;5054876;28;20059;-65
2022/07/14 05:44:46;;;;;;;9.70;1.90;;;;;;;;;;5052628;28;20035;-66
2022/07/14 05:47:12;;;;;;;6.72;1.88;;;;;;;;;;5056526;28;20024;-65
2022/07/14 05:49:41;;;;;;;5.70;1.75;;;;;;;;;;5047145;28;20452;-65
2022/07/14 05:52:08;;;;;;;7.20;1.85;;;;;;;;;;5054388;28;20454;-65
2022/07/14 05:54:34;;;;;;;14.00;2.75;;;;;;;;;;5053614;28;20133;-65
2022/07/14 05:57:00;;;;;;;18.17;3.65;;;;;;;;;;5052357;28;20450;-66
2022/07/14 05:59:26;;;;;;;16.58;3.00;;;;;;;;;;5055325;28;20040;-66
2022/07/14 06:01:52;;;;;;;15.65;3.70;;;;;;;;;;5051497;28;20037;-65
2022/07/14 06:04:18;;;;;;;13.52;3.67;;;;;;;;;;5057415;28;20058;-67
2022/07/14 06:06:45;;;;;;;19.48;4.00;;;;;;;;;;5054243;28;20016;-65
2022/07/14 06:09:12;;;;;;;23.80;4.00;;;;;;;;;;5055395;28;20066;-67
2022/07/14 06:11:41;;;;;;;23.20;4.15;;;;;;;;;;5053829;28;20434;-65
2022/07/14 06:14:07;;;;;;;21.70;3.78;;;;;;;;;;5054675;28;20028;-65
2022/07/14 06:16:36;;;;;;;23.52;3.65;;;;;;;;;;5052491;28;20405;-66
2022/07/14 06:19:02;;;;;;;24.55;3.50;;;;;;;;;;5052092;28;20168;-65
2022/07/14 06:21:28;;;;;;;20.45;3.92;;;;;;;;;;5052316;28;20031;-66
2022/07/14 06:23:55;;;;;;;14.23;3.08;;;;;;;;;;5051803;28;20134;-67
2022/07/14 06:26:22;;;;;;;14.80;3.17;;;;;;;;;;5037432;28;20034;-68
2022/07/14 06:28:48;;;;;;;14.73;2.72;;;;;;;;;;5032220;28;20273;-66
2022/07/14 06:31:14;;;;;;;14.55;2.90;;;;;;;;;;5055432;28;20021;-67
2022/07/14 06:33:40;;;;;;;9.60;2.30;;;;;;;;;;5034300;28;20095;-65
2022/07/14 06:36:08;;;;;;;10.95;2.42;;;;;;;;;;5053227;28;20028;-65
2022/07/14 06:38:34;;;;;;;12.27;2.17;;;;;;;;;;5050286;28;20030;-65
2022/07/14 06:41:01;;;;;;;10.27;1.80;;;;;;;;;;5049409;28;20024;-65
2022/07/14 06:43:27;;;;;;;10.68;1.98;;;;;;;;;;5037237;28;20033;-65
2022/07/14 06:45:53;;;;;;;11.63;2.20;;;;;;;;;;5048539;28;20036;-66
2022/07/14 06:48:21;;;;;;;11.15;2.33;;;;;;;;;;5053152;28;20049;-65
2022/07/14 06:50:47;;;;;;;12.05;1.92;;;;;;;;;;5054180;28;20112;-66
2022/07/14 06:53:13;;;;;;;9.98;1.85;;;;;;;;;;5042507;28;20582;-66
2022/07/14 06:55:40;;;;;;;9.10;1.73;;;;;;;;;;5050056;28;20288;-65
2022/07/14 06:58:06;;;;;;;7.47;1.65;;;;;;;;;;5058669;28;20737;-65
2022/07/14 07:00:32;;;;;;;10.23;1.90;;;;;;;;;;5059456;28;20027;-67
2022/07/14 07:02:59;;;;;;;8.35;1.90;;;;;;;;;;5056431;28;20573;-67
2022/07/14 07:08:09;;;;;;;5.53;1.50;;;;;;;;;;5063274;28;20443;-66
2022/07/14 07:10:40;;;;;;;7.60;1.77;;;;;;;;;;5044665;28;20119;-66
2022/07/14 07:13:07;;;;;;;9.25;2.22;;;;;;;;;;5054409;28;20105;-66
2022/07/14 07:15:33;;;;;;;16.92;2.13;;;;;;;;;;5054883;28;20585;-66
2022/07/14 07:17:59;;;;;;;6.57;1.83;;;;;;;;;;5048678;28;20054;-66
2022/07/14 07:20:25;;;;;;;7.55;1.73;;;;;;;;;;5056034;28;20409;-66
2022/07/14 07:22:51;;;;;;;9.32;1.80;;;;;;;;;;5047910;28;20058;-66
2022/07/14 07:25:18;;;;;;;6.55;1.65;;;;;;;;;;5052529;28;20609;-66
2022/07/14 07:27:44;;;;;;;11.02;2.03;;;;;;;;;;5049898;28;20115;-69
2022/07/14 07:30:10;;;;;;;6.13;1.70;;;;;;;;;;5054171;28;20196;-66
2022/07/14 07:32:36;;;;;;;8.88;1.52;;;;;;;;;;5051027;28;20023;-66
2022/07/14 07:35:03;;;;;;;7.35;1.50;;;;;;;;;;5035526;28;20035;-67
2022/07/14 07:37:29;;;;;;;7.25;1.95;;;;;;;;;;5050523;28;20037;-67
2022/07/14 07:39:59;;;;;;;5.47;1.15;;;;;;;;;;5049649;28;20039;-67
2022/07/14 07:42:25;;;;;;;6.72;1.20;;;;;;;;;;5060174;28;20452;-67
2022/07/14 07:44:51;;;;;;;10.75;3.33;;;;;;;;;;5054311;28;20066;-67
2022/07/14 07:47:18;;;;;;;9.18;2.38;;;;;;;;;;5028998;28;20056;-68
2022/07/14 07:49:44;;;;;;;86.28;8.75;;;;;;;;;;5026120;28;20057;-67
2022/07/14 07:52:10;;;;;;;89.65;10.73;;;;;;;;;;5034457;28;20098;-67
2022/07/14 07:54:36;;;;;;;43.42;7.05;;;;;;;;;;5034467;28;20033;-67
2022/07/14 07:57:02;;;;;;;10.60;2.03;;;;;;;;;;5030886;28;20065;-67
2022/07/14 07:59:28;;;;;;;6.63;1.50;;;;;;;;;;5034921;28;20071;-66
2022/07/14 08:01:55;;;;;;;6.47;1.30;;;;;;;;;;5033861;28;20058;-66
2022/07/14 08:04:22;;;;;;;6.13;1.40;;;;;;;;;;5031536;28;20503;-66
2022/07/14 08:06:48;;;;;;;6.00;1.30;;;;;;;;;;5028110;28;21151;-68
2022/07/14 08:09:14;;;;;;;6.10;1.30;;;;;;;;;;5030939;28;20029;-65
2022/07/14 08:11:41;;;;;;;4.22;1.20;;;;;;;;;;5027277;28;20087;-68
2022/07/14 08:14:47;;;;;;;2.85;0.93;;;;;;;;;;5031393;28;20033;-67
2022/07/14 08:16:54;;;;;;;4.75;1.15;;;;;;;;;;5031673;28;20029;-68
2022/07/14 08:19:20;;;;;;;5.32;1.10;;;;;;;;;;5035726;28;20111;-68
2022/07/14 08:21:46;;;;;;;4.65;1.10;;;;;;;;;;5032946;28;20033;-67
2022/07/14 08:24:13;;;;;;;4.22;1.17;;;;;;;;;;5031609;28;20036;-67
2022/07/14 08:26:40;;;;;;;5.70;1.13;;;;;;;;;;5026388;28;20071;-67
2022/07/14 08:29:06;;;;;;;3.55;1.05;;;;;;;;;;5030978;28;20039;-67
2022/07/14 08:31:33;;;;;;;9.43;1.50;;;;;;;;;;5032132;28;20037;-67
2022/07/14 08:33:59;;;;;;;5.88;1.40;;;;;;;;;;5028960;28;20136;-67
2022/07/14 08:36:26;;;;;;;5.55;1.30;;;;;;;;;;5029570;28;20095;-68
2022/07/14 08:38:52;;;;;;;9.45;1.50;;;;;;;;;;5025729;28;20190;-67
2022/07/14 08:41:18;;;;;;;7.82;1.40;;;;;;;;;;5032333;28;20332;-65
2022/07/14 08:43:45;;;;;;;5.85;1.15;;;;;;;;;;5026389;28;20025;-65
2022/07/14 08:46:12;;;;;;;4.68;1.08;;;;;;;;;;5030678;28;20028;-65
2022/07/14 08:48:39;;;;;;;4.65;1.20;;;;;;;;;;5040043;28;20361;-65
2022/07/14 08:51:06;;;;;;;4.88;1.33;;;;;;;;;;5052146;28;20071;-65
2022/07/14 08:53:32;;;;;;;4.88;1.20;;;;;;;;;;5049121;28;20044;-65
2022/07/14 08:55:59;;;;;;;3.88;1.10;;;;;;;;;;5046669;28;20732;-67
2022/07/14 08:58:25;;;;;;;3.20;0.90;;;;;;;;;;5036531;28;20031;-65
2022/07/14 09:00:51;;;;;;;7.30;1.38;;;;;;;;;;5030563;28;20535;-65
2022/07/14 09:03:17;;;;;;;4.28;1.10;;;;;;;;;;5033661;28;20454;-65
2022/07/14 09:05:44;;;;;;;4.25;1.17;;;;;;;;;;5045495;28;20116;-65
2022/07/14 09:08:11;;;;;;;5.28;1.20;;;;;;;;;;5050287;28;20466;-66
2022/07/14 09:10:38;;;;;;;3.28;0.95;;;;;;;;;;5044896;28;20043;-66
2022/07/14 09:13:22;;;;;;;3.28;0.90;;;;;;;;;;5032359;28;20028;-65
2022/07/14 09:15:49;;;;;;;4.20;1.15;;;;;;;;;;5050402;28;20395;-67
2022/07/14 09:18:33;;;;;;;2.38;0.85;;;;;;;;;;5051286;28;20032;-66
2022/07/14 09:21:18;;;;;;;3.40;1.00;;;;;;;;;;5044894;28;20043;-67
2022/07/14 09:23:45;;;;;;;3.20;1.10;;;;;;;;;;5047684;28;20318;-67
2022/07/14 09:26:18;;;;;;;2.35;0.90;;;;;;;;;;5048342;28;20087;-67
2022/07/14 09:28:45;;;;;;;5.20;1.08;;;;;;;;;;5049075;28;20242;-67
2022/07/14 09:31:24;;;;;;;2.97;0.90;;;;;;;;;;5054257;28;20111;-67
2022/07/14 09:33:51;;;;;;;3.72;0.93;;;;;;;;;;5047567;28;20029;-67
2022/07/14 09:36:23;;;;;;;3.88;0.95;;;;;;;;;;5052885;28;20387;-67
2022/07/14 09:38:49;;;;;;;2.85;1.00;;;;;;;;;;5038209;28;21224;-67
2022/07/14 09:41:15;;;;;;;4.13;0.90;;;;;;;;;;5033553;28;20555;-67
2022/07/14 09:44:01;;;;;;;4.30;0.90;;;;;;;;;;5048350;28;20043;-67
2022/07/14 09:46:46;;;;;;;3.70;0.85;;;;;;;;;;5053758;28;20085;-67
2022/07/14 09:49:13;;;;;;;3.00;0.80;;;;;;;;;;5053429;28;20454;-65
2022/07/14 09:52:02;;;;;;;5.47;0.95;;;;;;;;;;5036799;28;20032;-67
2022/07/14 09:54:37;;;;;;;6.80;1.00;;;;;;;;;;5031450;28;20275;-67
2022/07/14 09:57:08;;;;;;;3.15;0.90;;;;;;;;;;5054176;28;20036;-65
2022/07/14 09:59:47;;;;;;;3.83;1.02;;;;;;;;;;5053713;28;20348;-65
2022/07/14 10:02:28;;;;;;;2.15;0.80;;;;;;;;;;5033482;28;20102;-65
2022/07/14 10:04:55;;;;;;;2.38;0.90;;;;;;;;;;5040816;28;20491;-65
2022/07/14 10:07:22;;;;;;;3.72;0.82;;;;;;;;;;5052608;28;20078;-65
2022/07/14 10:09:55;;;;;;;5.57;1.20;;;;;;;;;;5052078;28;21083;-66
2022/07/14 10:12:21;;;;;;;4.20;1.08;;;;;;;;;;5050630;28;20085;-66
2022/07/14 10:14:48;;;;;;;4.10;1.00;;;;;;;;;;5049757;28;20892;-65
2022/07/14 10:17:16;;;;;;;4.22;1.15;;;;;;;;;;5051841;28;20036;-66
2022/07/14 10:19:42;;;;;;;3.42;0.90;;;;;;;;;;5030946;28;20606;-66
2022/07/14 10:22:09;;;;;;;6.65;1.00;;;;;;;;;;5053561;28;20059;-67
2022/07/14 10:24:36;;;;;;;4.57;0.90;;;;;;;;;;5052440;28;20024;-66
2022/07/14 10:27:03;;;;;;;4.68;1.10;;;;;;;;;;5040090;28;20028;-65
2022/07/14 10:29:30;;;;;;;3.95;0.82;;;;;;;;;;5054181;28;20351;-67
2022/07/14 10:32:12;;;;;;;5.03;1.08;;;;;;;;;;5033819;28;20032;-65
2022/07/14 10:34:51;;;;;;;3.08;0.93;;;;;;;;;;5053488;28;20131;-66
2022/07/14 10:37:34;;;;;;;7.03;1.40;;;;;;;;;;5038994;28;20472;-67
2022/07/14 10:40:00;;;;;;;2.53;0.90;;;;;;;;;;5037073;28;20499;-65
2022/07/14 10:42:48;;;;;;;4.70;1.20;;;;;;;;;;5043911;28;20029;-67
2022/07/14 10:45:14;;;;;;;4.63;1.00;;;;;;;;;;5039971;28;20081;-66
2022/07/14 10:47:52;;;;;;;2.28;0.82;;;;;;;;;;5049901;28;20181;-66
2022/07/14 10:50:20;;;;;;;5.10;1.00;;;;;;;;;;5051947;28;20048;-67
2022/07/14 10:52:55;;;;;;;3.58;0.98;;;;;;;;;;5034258;28;20040;-67
2022/07/14 10:55:24;;;;;;;;;;;;;;;;;;5058594;28;20028;-67
2022/07/14 10:57:59;;;;;;;3.10;1.10;;;;;;;;;;5036437;28;19912;-67
2022/07/14 11:00:44;;;;;;;6.65;1.00;;;;;;;;;;5055650;28;20387;-66
2022/07/14 11:03:20;;;;;;;4.10;1.10;;;;;;;;;;5052272;28;20260;-67
2022/07/14 11:06:06;;;;;;;3.60;0.98;;;;;;;;;;5054111;28;20485;-67
2022/07/14 11:08:33;;;;;;;5.45;1.13;;;;;;;;;;5053802;28;20115;-67
2022/07/14 11:11:00;;;;;;;5.78;1.20;;;;;;;;;;5051604;28;20032;-67
2022/07/14 11:13:27;;;;;;;2.78;1.00;;;;;;;;;;5054406;28;20029;-67
2022/07/14 11:15:54;;;;;;;5.47;1.20;;;;;;;;;;5054701;28;20032;-67
2022/07/14 11:18:21;;;;;;;3.15;0.85;;;;;;;;;;5051848;28;20024;-67
2022/07/14 11:21:07;;;;;;;6.18;1.10;;;;;;;;;;5049225;28;20078;-68
2022/07/14 11:23:34;;;;;;;3.33;1.00;;;;;;;;;;5049673;28;20392;-66
2022/07/14 11:26:03;;;;;;;4.70;1.10;;;;;;;;;;5049466;28;20029;-67
2022/07/14 11:28:32;;;;;;;7.75;1.33;;;;;;;;;;5041556;28;20476;-67
2022/07/14 11:31:09;;;;;;;5.00;1.10;;;;;;;;;;5053709;28;21069;-67
2022/07/14 11:33:36;;;;;;;5.10;0.90;;;;;;;;;;5056605;28;20174;-66
2022/07/14 11:36:19;;;;;;;6.07;1.35;;;;;;;;;;5054867;28;20035;-68
2022/07/14 11:38:45;;;;;;;7.35;1.10;;;;;;;;;;5047332;28;20036;-66
2022/07/14 11:41:15;;;;;;;3.92;1.00;;;;;;;;;;5052342;28;20028;-66
2022/07/14 11:43:50;;;;;;;5.97;0.93;;;;;;;;;;5049414;28;20036;-69
2022/07/14 11:46:18;;;;;;;4.45;1.15;;;;;;;;;;5035564;28;20601;-67
2022/07/14 11:48:48;;;;;;;3.72;1.10;;;;;;;;;;5028469;28;20468;-66
2022/07/14 11:51:20;;;;;;;5.32;1.00;;;;;;;;;;5033546;28;20114;-67
2022/07/14 11:53:52;;;;;;;4.10;0.90;;;;;;;;;;5051146;28;20025;-66
2022/07/14 11:56:22;;;;;;;3.50;0.90;;;;;;;;;;5032779;28;20480;-65
2022/07/14 11:58:50;;;;;;;4.95;1.10;;;;;;;;;;5047929;28;20558;-68
2022/07/14 12:01:16;;;;;;;5.30;1.10;;;;;;;;;;5036545;28;20047;-69
2022/07/14 12:03:43;;;;;;;3.20;1.20;;;;;;;;;;5032763;28;20421;-68
2022/07/14 12:06:09;;;;;;;3.72;0.80;;;;;;;;;;5054182;28;20099;-66
2022/07/14 12:08:37;;;;;;;4.40;0.90;;;;;;;;;;5050385;28;20037;-67
2022/07/14 12:11:11;;;;;;;5.35;1.20;;;;;;;;;;5054741;28;20124;-70
2022/07/14 12:13:46;;;;;;;7.03;1.10;;;;;;;;;;5031928;28;20032;-66
2022/07/14 12:16:12;;;;;;;8.30;1.30;;;;;;;;;;5051130;28;20109;-67
2022/07/14 12:18:39;;;;;;;5.60;1.10;;;;;;;;;;5047157;28;20040;-67
2022/07/14 12:21:05;;;;;;;4.10;1.20;;;;;;;;;;5035710;28;20474;-67
2022/07/14 12:23:31;;;;;;;4.97;1.00;;;;;;;;;;5051424;28;20472;-67
2022/07/14 12:26:01;;;;;;;4.35;1.00;;;;;;;;;;5047728;28;23097;-68
2022/07/14 12:28:28;;;;;;;6.95;1.10;;;;;;;;;;5049648;28;20433;-68
2022/07/14 12:30:57;;;;;;;5.32;1.20;;;;;;;;;;5048735;28;20024;-67
2022/07/14 12:33:36;;;;;;;4.00;1.20;;;;;;;;;;5032244;28;20210;-68
2022/07/14 12:36:03;;;;;;;4.45;1.00;;;;;;;;;;5046047;28;20527;-67
2022/07/14 12:38:30;;;;;;;4.30;1.05;;;;;;;;;;5047467;28;20076;-67
2022/07/14 12:40:58;;;;;;;5.70;1.17;;;;;;;;;;5027643;28;20449;-67
2022/07/14 12:43:24;;;;;;;6.10;1.00;;;;;;;;;;5050109;28;20040;-66
2022/07/14 12:45:59;;;;;;;3.80;1.05;;;;;;;;;;5048662;28;20024;-66
2022/07/14 12:48:25;;;;;;;3.65;1.05;;;;;;;;;;5045355;28;20051;-67
2022/07/14 12:50:51;;;;;;;3.97;0.98;;;;;;;;;;5047160;28;20924;-66
2022/07/14 12:53:18;;;;;;;8.23;1.40;;;;;;;;;;5053114;28;20032;-68
2022/07/14 12:55:44;;;;;;;7.93;1.10;;;;;;;;;;5049387;28;20361;-68
2022/07/14 12:58:11;;;;;;;6.63;1.10;;;;;;;;;;5048184;28;20471;-68
2022/07/14 13:00:39;;;;;;;4.80;1.20;;;;;;;;;;5048502;28;20074;-68
2022/07/14 13:03:15;;;;;;;5.47;0.90;;;;;;;;;;5050739;28;20733;-69
2022/07/14 13:05:48;;;;;;;3.25;1.00;;;;;;;;;;5026678;28;20044;-68
2022/07/14 13:08:33;;;;;;;5.80;1.05;;;;;;;;;;5050928;28;20020;-68
2022/07/14 13:11:00;;;;;;;3.15;0.90;;;;;;;;;;5047492;28;20122;-68
2022/07/14 13:13:34;;;;;;;3.72;0.82;;;;;;;;;;5039267;28;20032;-68
2022/07/14 13:16:19;;;;;;;4.30;1.08;;;;;;;;;;5052127;28;20233;-68
2022/07/14 13:19:04;;;;;;;6.07;1.38;;;;;;;;;;5035406;28;20101;-67
2022/07/14 13:21:57;;;;;;;3.63;1.00;;;;;;;;;;5052556;28;20024;-66
2022/07/14 13:24:23;;;;;;;5.65;1.10;;;;;;;;;;5052390;28;20139;-67
2022/07/14 13:27:02;;;;;;;3.38;0.82;;;;;;;;;;5032942;28;20036;-66
2022/07/14 13:29:29;;;;;;;2.83;0.95;;;;;;;;;;5054414;28;20503;-67
2022/07/14 13:31:55;;;;;;;4.68;0.93;;;;;;;;;;5053323;28;20111;-66
2022/07/14 13:34:21;;;;;;;4.30;1.10;;;;;;;;;;5054369;28;20032;-67
2022/07/14 13:36:47;;;;;;;2.33;0.80;;;;;;;;;;5036097;28;20036;-68
2022/07/14 13:39:14;;;;;;;5.03;1.05;;;;;;;;;;5049294;28;20029;-67
2022/07/14 13:41:41;;;;;;;2.67;0.90;;;;;;;;;;5051481;28;20101;-68
2022/07/14 13:44:08;;;;;;;4.38;0.88;;;;;;;;;;5036060;28;20040;-67
2022/07/14 13:46:35;;;;;;;3.10;0.82;;;;;;;;;;5052119;28;20029;-67
2022/07/14 13:49:01;;;;;;;7.78;1.10;;;;;;;;;;5052942;28;20055;-67
2022/07/14 13:54:12;;;;;;;;;;;;;;;;;;5054316;28;20698;-67
2022/07/14 13:56:40;;;;;;;5.93;1.05;;;;;;;;;;5037787;28;19916;-67
2022/07/14 13:59:09;;;;;;;2.13;0.68;;;;;;;;;;5055354;28;20051;-67
2022/07/14 14:01:36;;;;;;;4.57;0.98;;;;;;;;;;5050250;28;20041;-67
2022/07/14 14:04:02;;;;;;;2.38;0.70;;;;;;;;;;5050825;28;20128;-67
2022/07/14 14:06:28;;;;;;;2.25;0.82;;;;;;;;;;5036391;28;20125;-68
2022/07/14 14:08:55;;;;;;;2.05;0.70;;;;;;;;;;5050390;28;20113;-67
2022/07/14 14:11:21;;;;;;;4.13;0.90;;;;;;;;;;5052237;28;20036;-67
2022/07/14 14:13:47;;;;;;;4.15;0.90;;;;;;;;;;5032551;28;20029;-67
2022/07/14 14:16:13;;;;;;;2.83;0.90;;;;;;;;;;5050533;28;20574;-67
2022/07/14 14:18:40;;;;;;;3.58;0.90;;;;;;;;;;5034484;28;20021;-67
2022/07/14 14:21:07;;;;;;;3.95;0.82;;;;;;;;;;5053634;28;20039;-69
2022/07/14 14:23:34;;;;;;;3.55;0.90;;;;;;;;;;5030325;28;20355;-67
2022/07/14 14:26:02;;;;;;;5.57;0.90;;;;;;;;;;5048822;28;20033;-66
2022/07/14 14:28:29;;;;;;;3.03;0.90;;;;;;;;;;5053784;28;20557;-66
2022/07/14 14:30:55;;;;;;;3.50;0.90;;;;;;;;;;5030816;28;20206;-67
2022/07/14 14:33:22;;;;;;;4.07;0.80;;;;;;;;;;5054766;28;20348;-67
2022/07/14 14:35:48;;;;;;;2.45;0.77;;;;;;;;;;5050660;28;20056;-66
2022/07/14 14:38:14;;;;;;;3.25;1.00;;;;;;;;;;5052002;28;20349;-66
2022/07/14 14:40:42;;;;;;;3.75;0.80;;;;;;;;;;5048039;28;20727;-66
2022/07/14 14:43:12;;;;;;;2.25;0.80;;;;;;;;;;5056677;28;20719;-66
2022/07/14 14:45:42;;;;;;;3.78;0.98;;;;;;;;;;5050668;28;20567;-67
2022/07/14 14:48:09;;;;;;;2.63;0.80;;;;;;;;;;5054746;28;20048;-67
2022/07/14 14:50:36;;;;;;;7.32;0.90;;;;;;;;;;5052727;28;20036;-67
2022/07/14 14:53:03;;;;;;;3.95;0.90;;;;;;;;;;5035079;28;20024;-66
2022/07/14 14:55:29;;;;;;;6.10;0.95;;;;;;;;;;5051849;28;20032;-70
2022/07/14 14:57:55;;;;;;;3.42;0.90;;;;;;;;;;5034042;28;20042;-67